メインページ
METAR-TAF:

METAR-TAF

空港 :

フィラデルフィア国際空港

フィラデルフィア, ペンシルバニア州, アメリカ合衆国

緯度: 39-52-06N, 経度: 075-13-52W, 海抜: 6m

現時点の気象観測

当レポートは45分前の05:54(UTC)に作成
の風 11kt
気温 10°C
湿度 66%
気圧 1013 hPa
視程: 16.1km
高度3000ftの千切れ雲あり

METAR: KPHL 040554Z 35011KT 10SM BKN030 10/04 A2990 RMK AO2 SLP123 60000 T01000044 10106 20094 51004

時間: 02:39 (06:39 UTC)

予報

当レポートは1時間14分前の05:25(UTC)に作成
予報は04日の 06時(UTC)から 05日の 12時(UTC)まで有効
北/北西の風 11kt
視程: 10km
高度3500ftの曇り
04日の 0900時(UTC)から
の風 7kt
視程: 10km
高度2000ftの雲は散在している
高度3000ftの曇り
04日の 1300時(UTC)から
北東の風 7kt
視程: 10km
高度2000ftの曇り
04日の 2000時(UTC)から
変向風 5kt
視程: 10km
高度2500ftの雲は散在している
高度3500ftの千切れ雲あり
05日の 0300時(UTC)から
の風 5kt
視程: 10km
高度2500ftの千切れ雲あり

TAF: KPHL 040525Z 0406/0512 34011KT P6SM OVC035 FM040900 36007KT P6SM SCT020 OVC030 FM041300 04007KT P6SM OVC020 FM042000 VRB05KT P6SM SCT025 BKN035 FM050300 17005KT P6SM BKN025

4,000以上の空港の気象観測と天気予報(METAR報とTAF報)

利用可能な観測所は地図上に黄色い丸と赤い丸で示す。

丸の上にカーソルを重ねると観測所名を参照できる。

次にクリックすると気象観測と天気予報を参照できる。

マップの切り替え:黒色「×」印の緑ボタンをクリックして拡大、「-」印の緑ボタンをクリックして縮小、緑色の三角印をクリックして隣りの地図に切り替え


METAR-TAF: